createdAt,value
2019-02-24T00:01:36.436Z,100681.94
2019-02-24T00:04:08.318Z,100681.47
2019-02-24T00:06:38.819Z,100677.25
2019-02-24T00:09:09.160Z,100657.66
2019-02-24T00:11:39.905Z,100666.27
2019-02-24T00:14:10.568Z,100647.64
2019-02-24T00:16:41.504Z,100649.16
2019-02-24T00:19:11.989Z,100656.09
2019-02-24T00:21:42.937Z,100654.19
2019-02-24T00:24:13.289Z,100644.13
2019-02-24T00:26:43.713Z,100643.16
2019-02-24T00:29:14.291Z,100650.56
2019-02-24T00:31:44.690Z,100646.20
2019-02-24T00:34:15.072Z,100646.04
2019-02-24T00:36:45.621Z,100646.89
2019-02-24T00:39:16.130Z,100633.30
2019-02-24T00:41:46.874Z,100631.00
2019-02-24T00:44:17.352Z,100628.55
2019-02-24T00:46:47.705Z,100627.65
2019-02-24T00:49:18.215Z,100619.11
2019-02-24T00:51:48.758Z,100617.19
2019-02-24T00:54:19.196Z,100625.52
2019-02-24T00:56:49.632Z,100615.53
2019-02-24T00:59:20.332Z,100607.33
2019-02-24T01:01:51.873Z,100607.63
2019-02-24T01:04:22.413Z,100611.88
2019-02-24T01:06:53.037Z,100611.73
2019-02-24T01:09:23.481Z,100606.22
2019-02-24T01:11:53.973Z,100613.27
2019-02-24T01:14:24.450Z,100618.70
2019-02-24T01:16:55.458Z,100602.66
2019-02-24T01:19:25.914Z,100600.73
2019-02-24T01:21:56.379Z,100592.08
2019-02-24T01:24:26.785Z,100605.66
2019-02-24T01:26:57.289Z,100604.04
2019-02-24T01:29:27.744Z,100587.78
2019-02-24T01:31:58.152Z,100587.37
2019-02-24T01:34:28.706Z,100592.34
2019-02-24T01:36:59.142Z,100590.11
2019-02-24T01:39:29.534Z,100587.37
2019-02-24T01:41:59.938Z,100581.53
2019-02-24T01:44:30.303Z,100582.91
2019-02-24T01:47:00.827Z,100574.09
2019-02-24T01:49:31.319Z,100570.22
2019-02-24T01:52:01.721Z,100564.79
2019-02-24T01:54:32.105Z,100558.59
2019-02-24T01:57:02.562Z,100547.07
2019-02-24T01:59:33.160Z,100546.13
2019-02-24T02:02:04.323Z,100540.49
2019-02-24T02:04:34.745Z,100533.01
2019-02-24T02:07:05.855Z,100533.21
2019-02-24T02:09:36.480Z,100535.37
2019-02-24T02:12:08.583Z,100527.01
2019-02-24T02:14:39.150Z,100513.75
2019-02-24T02:17:09.504Z,100506.94
2019-02-24T02:19:40.292Z,100514.37
2019-02-24T02:22:10.903Z,100515.45
2019-02-24T02:24:41.769Z,100518.78
2019-02-24T02:27:12.205Z,100523.88
2019-02-24T02:29:42.806Z,100514.72
2019-02-24T02:32:13.411Z,100513.07
2019-02-24T02:34:43.828Z,100502.81
2019-02-24T02:37:14.234Z,100506.38
2019-02-24T02:39:44.912Z,100499.48
2019-02-24T02:42:15.299Z,100490.53
2019-02-24T02:44:45.747Z,100489.09
2019-02-24T02:47:16.146Z,100479.88
2019-02-24T02:49:46.518Z,100489.68
2019-02-24T02:52:16.941Z,100482.20
2019-02-24T02:54:47.296Z,100479.55
2019-02-24T02:57:18.037Z,100469.95
2019-02-24T02:59:48.503Z,100465.55
2019-02-24T03:02:24.472Z,100467.32
2019-02-24T03:04:50.996Z,100464.02
2019-02-24T03:07:25.793Z,100466.94
2019-02-24T03:09:56.232Z,100469.50
2019-02-24T03:12:26.724Z,100461.97
2019-02-24T03:14:57.042Z,100484.09
2019-02-24T03:17:27.973Z,100484.09
2019-02-24T03:19:58.315Z,100485.23
2019-02-24T03:22:28.748Z,100486.20
2019-02-24T03:24:59.247Z,100491.71
2019-02-24T03:27:29.735Z,100507.41
2019-02-24T03:30:00.317Z,100498.81
2019-02-24T03:32:31.681Z,100498.08
2019-02-24T03:35:02.212Z,100484.97
2019-02-24T03:37:33.330Z,100495.69
2019-02-24T03:40:03.914Z,100487.88
2019-02-24T03:42:34.351Z,100480.31
2019-02-24T03:45:04.807Z,100470.46
2019-02-24T03:47:35.232Z,100456.78
2019-02-24T03:50:06.215Z,100453.70
2019-02-24T03:52:36.652Z,100458.75
2019-02-24T03:55:07.085Z,100463.72
2019-02-24T03:57:37.826Z,100475.03
2019-02-24T04:00:08.405Z,100475.51
2019-02-24T04:02:38.813Z,100475.06
2019-02-24T04:05:09.383Z,100465.25
2019-02-24T04:07:39.781Z,100469.38
2019-02-24T04:10:10.234Z,100461.60
2019-02-24T04:12:40.864Z,100464.72
2019-02-24T04:15:11.280Z,100470.88
2019-02-24T04:17:41.643Z,100457.88
2019-02-24T04:20:12.179Z,100454.97
2019-02-24T04:22:43.660Z,100455.76
2019-02-24T04:25:14.140Z,100447.54
2019-02-24T04:27:44.771Z,100458.25
2019-02-24T04:30:15.200Z,100467.01
2019-02-24T04:32:45.559Z,100455.30
2019-02-24T04:35:16.069Z,100453.20
2019-02-24T04:37:46.504Z,100458.56
2019-02-24T04:40:16.972Z,100457.40
2019-02-24T04:42:47.309Z,100455.44
2019-02-24T04:45:17.733Z,100443.49
2019-02-24T04:47:48.407Z,100442.80
2019-02-24T04:50:19.087Z,100438.86
2019-02-24T04:52:49.534Z,100438.53
2019-02-24T04:55:19.971Z,100434.49
2019-02-24T04:57:50.400Z,100440.19
2019-02-24T05:00:20.905Z,100437.84
2019-02-24T05:02:51.514Z,100434.02
2019-02-24T05:05:22.403Z,100421.95
2019-02-24T05:07:52.952Z,100413.26
2019-02-24T05:10:24.461Z,100417.20
2019-02-24T05:12:55.251Z,100420.71
2019-02-24T05:15:25.772Z,100418.27
2019-02-24T05:17:56.256Z,100419.86
2019-02-24T05:20:27.677Z,100403.72
2019-02-24T05:22:58.136Z,100412.88
2019-02-24T05:25:28.662Z,100414.17
2019-02-24T05:27:59.247Z,100417.52
2019-02-24T05:30:30.437Z,100430.09
2019-02-24T05:33:01.280Z,100427.88
2019-02-24T05:35:31.724Z,100420.71
2019-02-24T05:38:02.216Z,100419.95
2019-02-24T05:40:32.573Z,100419.26
2019-02-24T05:43:03.308Z,100414.94
2019-02-24T05:45:33.905Z,100421.13
2019-02-24T05:48:04.651Z,100412.88
2019-02-24T05:50:35.074Z,100412.59
2019-02-24T05:53:05.871Z,100414.86
2019-02-24T05:55:36.293Z,100417.26
2019-02-24T05:58:06.691Z,100419.00
2019-02-24T06:00:37.325Z,100431.64
2019-02-24T06:03:07.736Z,100424.69
2019-02-24T06:05:38.145Z,100430.64
2019-02-24T06:08:08.619Z,100436.14
2019-02-24T06:10:39.008Z,100454.40
2019-02-24T06:13:09.521Z,100454.40
2019-02-24T06:15:39.986Z,100443.09
2019-02-24T06:18:10.642Z,100432.88
2019-02-24T06:20:40.989Z,100419.26
2019-02-24T06:23:11.463Z,100423.11
2019-02-24T06:25:41.859Z,100404.31
2019-02-24T06:28:12.337Z,100397.97
2019-02-24T06:30:42.906Z,100393.41
2019-02-24T06:33:13.584Z,100408.20
2019-02-24T06:35:44.284Z,100408.27
2019-02-24T06:38:14.724Z,100410.92
2019-02-24T06:40:45.142Z,100408.34
2019-02-24T06:43:15.548Z,100406.50
2019-02-24T06:45:46.255Z,100401.98
2019-02-24T06:48:16.695Z,100408.92
2019-02-24T06:51:11.974Z,100405.19
2019-02-24T06:53:42.359Z,100405.26
2019-02-24T06:56:12.728Z,100405.19
2019-02-24T06:58:43.283Z,100413.69
2019-02-24T07:01:13.772Z,100409.32
2019-02-24T07:03:44.269Z,100402.91
2019-02-24T07:06:14.723Z,100390.75
2019-02-24T07:08:45.366Z,100385.31
2019-02-24T07:11:15.793Z,100390.65
2019-02-24T07:13:46.464Z,100390.67
2019-02-24T07:16:16.982Z,100399.76
2019-02-24T07:18:47.453Z,100385.39
2019-02-24T07:21:18.053Z,100387.41
2019-02-24T07:23:48.487Z,100391.79
2019-02-24T07:26:18.909Z,100383.11
2019-02-24T07:28:49.223Z,100372.50
2019-02-24T07:31:19.741Z,100370.79
2019-02-24T07:33:50.233Z,100371.63
2019-02-24T07:36:21.822Z,100365.00
2019-02-24T07:38:52.614Z,100368.02
2019-02-24T07:41:23.045Z,100371.73
2019-02-24T07:43:53.829Z,100377.89
2019-02-24T07:46:24.535Z,100378.47
2019-02-24T07:48:55.009Z,100379.89
2019-02-24T07:51:25.492Z,100382.05
2019-02-24T07:53:55.918Z,100372.91
2019-02-24T07:56:26.260Z,100369.27
2019-02-24T07:58:56.649Z,100371.43
2019-02-24T08:01:27.130Z,100379.05
2019-02-24T08:03:57.827Z,100381.41
2019-02-24T08:06:28.319Z,100382.84
2019-02-24T08:08:58.751Z,100383.89
2019-02-24T08:11:29.238Z,100381.95
2019-02-24T08:14:00.389Z,100376.14
2019-02-24T08:16:30.864Z,100371.47
2019-02-24T08:19:01.448Z,100369.58
2019-02-24T08:21:31.938Z,100374.39
2019-02-24T08:24:02.380Z,100373.12
2019-02-24T08:26:32.818Z,100369.37
2019-02-24T08:29:04.388Z,100373.46
2019-02-24T08:31:34.969Z,100372.37
2019-02-24T08:34:05.872Z,100370.72
2019-02-24T08:36:36.354Z,100377.86
2019-02-24T08:39:07.091Z,100378.58
2019-02-24T08:41:37.711Z,100368.16
2019-02-24T08:44:08.279Z,100365.27
2019-02-24T08:46:39.008Z,100363.69
2019-02-24T08:49:09.528Z,100370.48
2019-02-24T08:51:40.093Z,100366.37
2019-02-24T08:54:10.856Z,100370.95
2019-02-24T08:56:41.344Z,100371.93
2019-02-24T08:59:11.813Z,100383.88
2019-02-24T09:01:42.249Z,100377.14
2019-02-24T09:04:12.903Z,100402.73
2019-02-24T09:06:43.384Z,100397.16
2019-02-24T09:09:13.933Z,100380.05
2019-02-24T09:11:44.450Z,100379.05
2019-02-24T09:14:14.837Z,100386.92
2019-02-24T09:16:45.292Z,100381.47
2019-02-24T09:19:16.635Z,100390.67
2019-02-24T09:21:47.175Z,100388.27
2019-02-24T09:24:17.557Z,100390.31
2019-02-24T09:26:48.277Z,100382.63
2019-02-24T09:29:18.896Z,100387.09
2019-02-24T09:31:49.324Z,100399.87
2019-02-24T09:34:19.725Z,100385.86
2019-02-24T09:36:50.511Z,100390.85
2019-02-24T09:39:20.836Z,100404.49
2019-02-24T09:41:51.235Z,100403.06
2019-02-24T09:44:21.866Z,100407.43
2019-02-24T09:46:52.574Z,100409.11
2019-02-24T09:49:23.034Z,100407.44
2019-02-24T09:51:53.491Z,100402.97
2019-02-24T09:54:23.916Z,100390.98
2019-02-24T09:56:54.399Z,100397.03
2019-02-24T09:59:24.846Z,100401.62
2019-02-24T10:01:55.563Z,100402.11
2019-02-24T10:04:25.893Z,100400.54
2019-02-24T10:06:56.309Z,100393.39
2019-02-24T10:09:26.819Z,100384.19
2019-02-24T10:11:57.287Z,100389.50
2019-02-24T10:14:28.030Z,100400.63
2019-02-24T10:16:58.497Z,100391.05
2019-02-24T10:19:31.146Z,100394.31
2019-02-24T10:22:01.338Z,100397.41
2019-02-24T10:24:31.760Z,100393.55
2019-02-24T10:27:02.280Z,100395.38
2019-02-24T10:29:33.666Z,100394.52
2019-02-24T10:32:04.246Z,100394.59
2019-02-24T10:34:34.665Z,100386.88
2019-02-24T10:37:05.746Z,100389.95
2019-02-24T10:39:36.116Z,100383.42
2019-02-24T10:42:06.481Z,100388.77
2019-02-24T10:44:36.892Z,100386.89
2019-02-24T10:47:07.386Z,100377.91
2019-02-24T10:49:37.891Z,100375.80
2019-02-24T10:52:08.530Z,100370.64
2019-02-24T10:54:39.006Z,100371.66
2019-02-24T10:57:12.846Z,100362.54
2019-02-24T10:59:41.934Z,100363.67
2019-02-24T11:02:12.404Z,100354.40
2019-02-24T11:04:42.943Z,100363.59
2019-02-24T11:07:13.351Z,100359.41
2019-02-24T11:09:43.937Z,100352.61
2019-02-24T11:12:14.623Z,100354.42
2019-02-24T11:14:45.035Z,100361.31
2019-02-24T11:17:16.405Z,100351.05
2019-02-24T11:19:47.066Z,100345.78
2019-02-24T11:22:17.897Z,100347.34
2019-02-24T11:24:48.357Z,100340.75
2019-02-24T11:27:18.867Z,100336.08
2019-02-24T11:29:49.496Z,100336.08
2019-02-24T11:32:19.895Z,100320.63
2019-02-24T11:34:50.634Z,100323.72
2019-02-24T11:37:21.273Z,100314.27
2019-02-24T11:39:51.695Z,100306.30
2019-02-24T11:42:22.167Z,100302.16
2019-02-24T11:44:52.575Z,100297.34
2019-02-24T11:47:22.993Z,100302.48
2019-02-24T11:49:53.466Z,100301.70
2019-02-24T11:52:23.914Z,100304.98
2019-02-24T11:54:54.388Z,100296.50
2019-02-24T11:57:25.504Z,100300.83
2019-02-24T11:59:56.055Z,100291.94
2019-02-24T12:02:34.187Z,100303.23
2019-02-24T12:04:58.656Z,100303.60
2019-02-24T12:07:29.087Z,100284.98
2019-02-24T12:09:59.704Z,100294.75
2019-02-24T12:12:31.146Z,100286.46
2019-02-24T12:15:01.614Z,100280.61
2019-02-24T12:17:32.471Z,100278.47
2019-02-24T12:20:03.200Z,100278.30
2019-02-24T12:22:33.967Z,100275.11
2019-02-24T12:25:05.211Z,100281.45
2019-02-24T12:27:35.727Z,100275.70
2019-02-24T12:30:07.621Z,100275.64
2019-02-24T12:32:38.199Z,100275.10
2019-02-24T12:35:08.884Z,100267.88
2019-02-24T12:37:39.233Z,100261.32
2019-02-24T12:40:09.796Z,100266.90
2019-02-24T12:42:40.176Z,100259.34
2019-02-24T12:45:10.570Z,100246.65
2019-02-24T12:47:41.057Z,100245.15
2019-02-24T12:50:11.581Z,100242.83
2019-02-24T12:52:42.103Z,100243.73
2019-02-24T12:55:12.669Z,100236.65
2019-02-24T12:57:43.201Z,100242.11
2019-02-24T13:00:16.778Z,100235.97
2019-02-24T13:02:47.184Z,100240.17
2019-02-24T13:05:17.837Z,100252.58
2019-02-24T13:07:48.161Z,100244.15
2019-02-24T13:10:18.590Z,100235.00
2019-02-24T13:12:48.956Z,100244.72
2019-02-24T13:15:19.742Z,100243.14
2019-02-24T13:17:51.237Z,100236.86
2019-02-24T13:20:21.867Z,100234.83
2019-02-24T13:22:52.327Z,100234.59
2019-02-24T13:25:22.799Z,100236.26
2019-02-24T13:27:54.299Z,100234.67
2019-02-24T13:30:25.335Z,100235.88
2019-02-24T13:32:55.824Z,100228.05
2019-02-24T13:35:26.246Z,100229.16
2019-02-24T13:37:56.660Z,100233.07
2019-02-24T13:40:27.129Z,100225.31
2019-02-24T13:42:57.621Z,100222.56
2019-02-24T13:45:28.913Z,100228.39
2019-02-24T13:48:00.348Z,100213.13
2019-02-24T13:50:30.972Z,100207.00
2019-02-24T13:53:01.547Z,100209.44
2019-02-24T13:55:32.246Z,100206.19
2019-02-24T13:58:02.874Z,100210.36
2019-02-24T14:00:33.521Z,100192.00
2019-02-24T14:03:06.083Z,100194.31
2019-02-24T14:05:36.478Z,100188.72
2019-02-24T14:08:06.949Z,100191.82
2019-02-24T14:10:37.607Z,100195.96
2019-02-24T14:13:07.964Z,100189.94
2019-02-24T14:15:38.364Z,100206.95
2019-02-24T14:18:08.716Z,100205.12
2019-02-24T14:20:39.244Z,100212.73
2019-02-24T14:23:09.594Z,100204.91
2019-02-24T14:25:39.957Z,100207.22
2019-02-24T14:28:10.345Z,100209.28
2019-02-24T14:30:40.808Z,100209.90
2019-02-24T14:33:12.346Z,100222.50
2019-02-24T14:35:42.872Z,100208.30
2019-02-24T14:38:13.291Z,100219.16
2019-02-24T14:40:44.096Z,100216.09
2019-02-24T14:43:14.670Z,100220.63
2019-02-24T14:45:49.612Z,100225.20
2019-02-24T14:48:17.345Z,100220.67
2019-02-24T14:50:48.028Z,100214.86
2019-02-24T14:53:18.776Z,100206.96
2019-02-24T14:55:49.179Z,100218.80
2019-02-24T14:58:19.596Z,100227.94
2019-02-24T15:00:50.051Z,100202.45
2019-02-24T15:03:20.596Z,100200.22
2019-02-24T15:05:51.137Z,100197.19
2019-02-24T15:08:23.267Z,100196.94
2019-02-24T15:10:53.736Z,100187.17
2019-02-24T15:13:24.254Z,100186.09
2019-02-24T15:15:54.666Z,100189.66
2019-02-24T15:18:25.047Z,100191.44
2019-02-24T15:20:55.503Z,100182.28
2019-02-24T15:23:25.968Z,100176.06
2019-02-24T15:25:56.398Z,100176.06
2019-02-24T15:28:26.964Z,100183.64
2019-02-24T15:30:57.562Z,100177.64
2019-02-24T15:33:28.063Z,100171.24
2019-02-24T15:35:58.689Z,100173.72
2019-02-24T15:38:29.275Z,100173.23
2019-02-24T15:40:59.669Z,100170.42
2019-02-24T15:43:30.287Z,100178.87
2019-02-24T15:46:00.849Z,100180.20
2019-02-24T15:48:31.254Z,100178.47
2019-02-24T15:51:01.846Z,100181.99
2019-02-24T15:53:32.482Z,100185.80
2019-02-24T15:56:03.847Z,100189.09
2019-02-24T15:58:34.489Z,100196.42
2019-02-24T16:01:06.596Z,100189.00
2019-02-24T16:03:37.207Z,100182.57
2019-02-24T16:06:07.726Z,100196.63
2019-02-24T16:08:38.347Z,100194.11
2019-02-24T16:11:08.808Z,100193.95
2019-02-24T16:13:39.346Z,100178.56
2019-02-24T16:16:09.812Z,100166.73
2019-02-24T16:18:41.654Z,100176.37
2019-02-24T16:21:12.181Z,100167.46
2019-02-24T16:23:42.643Z,100166.25
2019-02-24T16:26:13.029Z,100166.34
2019-02-24T16:28:43.484Z,100177.52
2019-02-24T16:31:13.912Z,100179.50
2019-02-24T16:33:44.382Z,100174.00
2019-02-24T16:36:15.438Z,100187.81
2019-02-24T16:38:46.037Z,100177.77
2019-02-24T16:41:16.431Z,100191.45
2019-02-24T16:43:46.869Z,100183.23
2019-02-24T16:46:17.322Z,100181.28
2019-02-24T16:48:47.750Z,100189.43
2019-02-24T16:51:18.230Z,100181.41
2019-02-24T16:53:48.606Z,100190.20
2019-02-24T16:56:19.085Z,100202.75
2019-02-24T16:58:49.507Z,100209.92
2019-02-24T17:01:20.163Z,100202.52
2019-02-24T17:03:50.723Z,100188.05
2019-02-24T17:06:21.204Z,100201.83
2019-02-24T17:09:00.634Z,100194.50
2019-02-24T17:11:32.444Z,100181.42
2019-02-24T17:14:02.830Z,100193.52
2019-02-24T17:16:33.746Z,100193.31
2019-02-24T17:19:04.128Z,100187.00
2019-02-24T17:21:34.501Z,100196.84
2019-02-24T17:24:05.732Z,100190.00
2019-02-24T17:26:36.273Z,100196.77
2019-02-24T17:29:06.642Z,100191.17
2019-02-24T17:31:37.082Z,100178.41
2019-02-24T17:34:07.439Z,100183.97
2019-02-24T17:36:37.865Z,100176.39
2019-02-24T17:39:08.306Z,100180.40
2019-02-24T17:41:40.361Z,100179.06
2019-02-24T17:44:10.733Z,100180.23
2019-02-24T17:46:41.313Z,100174.53
2019-02-24T17:49:11.760Z,100185.22
2019-02-24T17:51:44.693Z,100178.55
2019-02-24T17:54:15.074Z,100182.22
2019-02-24T17:56:45.550Z,100192.42
2019-02-24T17:59:15.928Z,100188.05
2019-02-24T18:01:46.444Z,100182.83
2019-02-24T18:04:16.874Z,100199.59
2019-02-24T18:06:48.257Z,100205.42
2019-02-24T18:09:18.697Z,100215.55
2019-02-24T18:11:49.093Z,100203.31
2019-02-24T18:14:19.515Z,100213.52
2019-02-24T18:16:49.947Z,100208.66
2019-02-24T18:19:20.414Z,100208.81
2019-02-24T18:21:50.789Z,100206.14
2019-02-24T18:24:21.233Z,100193.06
2019-02-24T18:26:51.792Z,100192.27
2019-02-24T18:29:22.350Z,100192.78
2019-02-24T18:31:52.858Z,100192.14
2019-02-24T18:34:23.188Z,100196.80
2019-02-24T18:36:53.556Z,100195.22
2019-02-24T18:39:24.298Z,100191.66
2019-02-24T18:41:54.713Z,100203.80
2019-02-24T18:44:26.187Z,100203.52
2019-02-24T18:46:56.711Z,100203.47
2019-02-24T18:49:27.111Z,100211.81
2019-02-24T18:51:57.468Z,100209.22
2019-02-24T18:54:34.573Z,100208.38
2019-02-24T18:56:59.904Z,100204.85
2019-02-24T18:59:30.330Z,100196.02
2019-02-24T19:02:00.959Z,100206.19
2019-02-24T19:04:31.345Z,100212.66
2019-02-24T19:07:01.808Z,100203.31
2019-02-24T19:09:32.524Z,100200.84
2019-02-24T19:12:02.863Z,100205.22
2019-02-24T19:14:33.259Z,100208.86
2019-02-24T19:17:03.778Z,100201.20
2019-02-24T19:19:35.198Z,100196.22
2019-02-24T19:22:07.241Z,100194.04
2019-02-24T19:24:37.743Z,100199.38
2019-02-24T19:27:08.212Z,100206.06
2019-02-24T19:29:38.674Z,100216.83
2019-02-24T19:32:09.084Z,100213.79
2019-02-24T19:34:39.542Z,100207.27
2019-02-24T19:37:09.980Z,100204.92
2019-02-24T19:39:40.424Z,100213.66
2019-02-24T19:42:10.846Z,100202.20
2019-02-24T19:44:41.243Z,100208.39
2019-02-24T19:47:11.769Z,100206.21
2019-02-24T19:49:42.235Z,100196.98
2019-02-24T19:52:12.698Z,100195.80
2019-02-24T19:54:43.106Z,100191.64
2019-02-24T19:57:13.587Z,100179.62
2019-02-24T19:59:43.981Z,100182.45
2019-02-24T20:02:14.450Z,100193.90
2019-02-24T20:04:44.785Z,100195.11
2019-02-24T20:07:15.231Z,100197.14
2019-02-24T20:09:45.677Z,100191.59
2019-02-24T20:12:17.138Z,100194.39
2019-02-24T20:14:47.530Z,100193.20
2019-02-24T20:17:18.056Z,100191.51
2019-02-24T20:19:48.532Z,100199.87
2019-02-24T20:22:18.963Z,100194.81
2019-02-24T20:24:49.341Z,100214.97
2019-02-24T20:27:20.701Z,100218.49
2019-02-24T20:29:51.350Z,100220.53
2019-02-24T20:32:21.840Z,100217.52
2019-02-24T20:34:52.348Z,100222.17
2019-02-24T20:37:22.772Z,100215.98
2019-02-24T20:39:53.279Z,100226.78
2019-02-24T20:42:23.696Z,100220.47
2019-02-24T20:44:54.071Z,100222.57
2019-02-24T20:47:24.509Z,100214.44
2019-02-24T20:49:55.034Z,100202.54
2019-02-24T20:52:25.432Z,100196.22
2019-02-24T20:54:55.815Z,100206.91
2019-02-24T20:57:26.247Z,100196.28
2019-02-24T20:59:56.691Z,100196.28
2019-02-24T21:02:27.119Z,100192.36
2019-02-24T21:04:58.468Z,100198.62
2019-02-24T21:07:28.832Z,100198.69
2019-02-24T21:09:59.226Z,100191.49
2019-02-24T21:12:29.623Z,100194.89
2019-02-24T21:15:00.037Z,100184.05
2019-02-24T21:17:30.381Z,100199.10
2019-02-24T21:20:00.925Z,100197.98
2019-02-24T21:22:31.425Z,100193.81
2019-02-24T21:25:01.903Z,100197.91
2019-02-24T21:27:32.390Z,100195.80
2019-02-24T21:30:03.078Z,100195.85
2019-02-24T21:32:33.596Z,100202.05
2019-02-24T21:35:04.170Z,100207.18
2019-02-24T21:37:35.637Z,100210.56
2019-02-24T21:40:06.706Z,100213.84
2019-02-24T21:42:37.163Z,100215.98
2019-02-24T21:45:10.795Z,100215.55
2019-02-24T21:47:41.386Z,100220.77
2019-02-24T21:50:12.863Z,100209.08
2019-02-24T21:52:43.594Z,100210.42
2019-02-24T21:55:14.236Z,100228.64
2019-02-24T21:57:44.787Z,100222.57
2019-02-24T22:00:17.277Z,100215.35
2019-02-24T22:02:47.761Z,100204.15
2019-02-24T22:05:18.354Z,100204.23
2019-02-24T22:07:48.787Z,100199.25
2019-02-24T22:10:19.120Z,100194.32
2019-02-24T22:12:49.493Z,100204.52
2019-02-24T22:15:20.258Z,100205.98
2019-02-24T22:17:50.669Z,100202.55
2019-02-24T22:20:21.146Z,100200.80
2019-02-24T22:22:51.498Z,100205.50
2019-02-24T22:25:21.960Z,100204.58
2019-02-24T22:27:52.344Z,100216.11
2019-02-24T22:30:22.704Z,100228.50
2019-02-24T22:32:53.347Z,100224.90
2019-02-24T22:35:23.845Z,100221.73
2019-02-24T22:37:54.255Z,100218.91
2019-02-24T22:40:24.695Z,100213.84
2019-02-24T22:42:55.126Z,100207.45
2019-02-24T22:45:25.631Z,100201.58
2019-02-24T22:47:56.077Z,100207.49
2019-02-24T22:50:26.566Z,100200.16
2019-02-24T22:52:57.045Z,100189.34
2019-02-24T22:55:28.371Z,100183.14
2019-02-24T22:57:58.739Z,100184.69
2019-02-24T23:01:18.221Z,100184.88
2019-02-24T23:03:49.523Z,100184.39
2019-02-24T23:06:19.963Z,100184.03
2019-02-24T23:08:50.560Z,100167.98
2019-02-24T23:11:21.040Z,100181.23
2019-02-24T23:13:51.362Z,100184.66
2019-02-24T23:16:21.737Z,100188.41
2019-02-24T23:18:52.323Z,100199.59
2019-02-24T23:21:23.867Z,100205.02
2019-02-24T23:23:54.343Z,100203.28
2019-02-24T23:26:24.769Z,100209.06
2019-02-24T23:28:55.253Z,100216.65
2019-02-24T23:31:25.771Z,100218.50
2019-02-24T23:33:57.157Z,100210.56
2019-02-24T23:36:27.669Z,100220.25
2019-02-24T23:38:58.235Z,100221.14
2019-02-24T23:41:28.690Z,100215.03
2019-02-24T23:43:59.102Z,100210.97
2019-02-24T23:46:29.578Z,100209.79
2019-02-24T23:49:00.964Z,100208.50
2019-02-24T23:51:31.376Z,100185.38
2019-02-24T23:54:01.751Z,100175.17
2019-02-24T23:56:32.194Z,100171.48
2019-02-24T23:59:02.597Z,100169.33
